Two Rivers, Alaska
Current Conditions -  °F | °C
As of 1:58 AM on Sunday 23 Nov 2014 (Local Time) from PAEI Reporting Station
Scattered Clouds Scattered Clouds  
Wind Chill:   Ceiling: Unl
Heat Index:   Visibility: 10mi
Dew Point: -2°   Wind: 0mph
Humidity: 73%   Direction: NA
Pressure: 29.47"   Gusts: NA
Location:  64.87°N, 147.09°W
Report Text: PAEI 231058Z AUTO 00000KT 10SM SCT075 M15/M19 A2947 RMK AO2 SLP995 T11491188 $
Loading
Personal Weather Stations






























Interactive Weather Map New forecast layout! Learn more

10-Day Weather Forecast

Advertisements
Track Severe Weather on mobile